sensor_id;sensor_type;location;lat;lon;timestamp;P1;durP1;ratioP1;P2;durP2;ratioP2
4921;SDS011;16625;53.624;10.106;2023-07-02T00:01:55;7.73;;;3.50;;
4921;SDS011;16625;53.624;10.106;2023-07-02T00:04:23;10.83;;;4.30;;
4921;SDS011;16625;53.624;10.106;2023-07-02T00:06:50;4.73;;;3.33;;
4921;SDS011;16625;53.624;10.106;2023-07-02T00:09:17;6.77;;;3.73;;
4921;SDS011;16625;53.624;10.106;2023-07-02T00:11:44;7.73;;;3.90;;
4921;SDS011;16625;53.624;10.106;2023-07-02T00:14:12;11.20;;;5.10;;
4921;SDS011;16625;53.624;10.106;2023-07-02T00:16:39;9.20;;;3.47;;
4921;SDS011;16625;53.624;10.106;2023-07-02T00:19:09;7.20;;;2.90;;
4921;SDS011;16625;53.624;10.106;2023-07-02T00:21:37;14.73;;;5.00;;
4921;SDS011;16625;53.624;10.106;2023-07-02T00:24:05;7.20;;;4.30;;
4921;SDS011;16625;53.624;10.106;2023-07-02T00:26:32;6.73;;;4.33;;
4921;SDS011;16625;53.624;10.106;2023-07-02T00:28:59;5.23;;;3.67;;
4921;SDS011;16625;53.624;10.106;2023-07-02T00:31:25;8.90;;;4.30;;
4921;SDS011;16625;53.624;10.106;2023-07-02T00:33:52;6.40;;;4.20;;
4921;SDS011;16625;53.624;10.106;2023-07-02T00:36:19;10.13;;;4.63;;
4921;SDS011;16625;53.624;10.106;2023-07-02T00:38:48;10.03;;;4.20;;
4921;SDS011;16625;53.624;10.106;2023-07-02T00:41:15;8.90;;;5.13;;
4921;SDS011;16625;53.624;10.106;2023-07-02T00:43:42;9.23;;;5.20;;
4921;SDS011;16625;53.624;10.106;2023-07-02T00:46:11;7.73;;;4.47;;
4921;SDS011;16625;53.624;10.106;2023-07-02T00:48:43;13.37;;;5.40;;
4921;SDS011;16625;53.624;10.106;2023-07-02T00:51:10;8.40;;;4.30;;
4921;SDS011;16625;53.624;10.106;2023-07-02T00:53:39;13.63;;;5.00;;
4921;SDS011;16625;53.624;10.106;2023-07-02T00:56:08;10.83;;;4.70;;
4921;SDS011;16625;53.624;10.106;2023-07-02T00:58:34;12.57;;;5.13;;
4921;SDS011;16625;53.624;10.106;2023-07-02T01:01:05;7.53;;;4.00;;
4921;SDS011;16625;53.624;10.106;2023-07-02T01:03:32;7.93;;;4.17;;
4921;SDS011;16625;53.624;10.106;2023-07-02T01:06:02;5.63;;;4.30;;
4921;SDS011;16625;53.624;10.106;2023-07-02T01:08:29;8.90;;;5.10;;
4921;SDS011;16625;53.624;10.106;2023-07-02T01:10:56;6.53;;;4.50;;
4921;SDS011;16625;53.624;10.106;2023-07-02T01:13:25;7.20;;;4.70;;
4921;SDS011;16625;53.624;10.106;2023-07-02T01:15:53;7.00;;;4.30;;
4921;SDS011;16625;53.624;10.106;2023-07-02T01:18:20;7.60;;;4.60;;
4921;SDS011;16625;53.624;10.106;2023-07-02T01:20:49;8.40;;;3.90;;
4921;SDS011;16625;53.624;10.106;2023-07-02T01:23:18;5.17;;;4.20;;
4921;SDS011;16625;53.624;10.106;2023-07-02T01:25:45;5.77;;;4.90;;
4921;SDS011;16625;53.624;10.106;2023-07-02T01:28:12;4.73;;;3.97;;
4921;SDS011;16625;53.624;10.106;2023-07-02T01:30:39;14.30;;;5.07;;
4921;SDS011;16625;53.624;10.106;2023-07-02T01:33:06;5.73;;;4.50;;
4921;SDS011;16625;53.624;10.106;2023-07-02T01:35:33;8.37;;;4.17;;
4921;SDS011;16625;53.624;10.106;2023-07-02T01:38:01;8.00;;;5.40;;
4921;SDS011;16625;53.624;10.106;2023-07-02T01:40:28;11.90;;;4.83;;
4921;SDS011;16625;53.624;10.106;2023-07-02T01:42:55;7.23;;;4.70;;
4921;SDS011;16625;53.624;10.106;2023-07-02T01:45:22;7.50;;;4.87;;
4921;SDS011;16625;53.624;10.106;2023-07-02T01:47:49;5.10;;;3.90;;
4921;SDS011;16625;53.624;10.106;2023-07-02T01:50:16;7.13;;;4.10;;
4921;SDS011;16625;53.624;10.106;2023-07-02T01:52:42;6.00;;;4.30;;
4921;SDS011;16625;53.624;10.106;2023-07-02T01:55:11;8.40;;;4.57;;
4921;SDS011;16625;53.624;10.106;2023-07-02T01:57:37;14.93;;;5.93;;
4921;SDS011;16625;53.624;10.106;2023-07-02T02:00:05;13.10;;;6.20;;
4921;SDS011;16625;53.624;10.106;2023-07-02T02:02:33;9.80;;;4.83;;
4921;SDS011;16625;53.624;10.106;2023-07-02T02:05:00;8.80;;;4.83;;
4921;SDS011;16625;53.624;10.106;2023-07-02T02:07:27;10.33;;;4.93;;
4921;SDS011;16625;53.624;10.106;2023-07-02T02:09:54;6.13;;;4.50;;
4921;SDS011;16625;53.624;10.106;2023-07-02T02:12:22;7.47;;;4.50;;
4921;SDS011;16625;53.624;10.106;2023-07-02T02:14:49;10.20;;;5.20;;
4921;SDS011;16625;53.624;10.106;2023-07-02T02:17:16;9.73;;;5.27;;
4921;SDS011;16625;53.624;10.106;2023-07-02T02:19:43;6.23;;;4.53;;
4921;SDS011;16625;53.624;10.106;2023-07-02T02:22:10;9.90;;;4.57;;
4921;SDS011;16625;53.624;10.106;2023-07-02T02:24:36;8.93;;;6.03;;
4921;SDS011;16625;53.624;10.106;2023-07-02T02:27:04;13.20;;;4.60;;
4921;SDS011;16625;53.624;10.106;2023-07-02T02:29:32;10.73;;;5.13;;
4921;SDS011;16625;53.624;10.106;2023-07-02T02:31:59;13.00;;;5.73;;
4921;SDS011;16625;53.624;10.106;2023-07-02T02:34:26;9.97;;;5.00;;
4921;SDS011;16625;53.624;10.106;2023-07-02T02:36:53;8.90;;;5.03;;
4921;SDS011;16625;53.624;10.106;2023-07-02T02:39:21;7.17;;;4.97;;
4921;SDS011;16625;53.624;10.106;2023-07-02T02:41:48;8.73;;;5.53;;
4921;SDS011;16625;53.624;10.106;2023-07-02T02:44:15;15.30;;;6.77;;
4921;SDS011;16625;53.624;10.106;2023-07-02T02:46:43;8.10;;;6.53;;
4921;SDS011;16625;53.624;10.106;2023-07-02T02:49:10;9.47;;;5.23;;
4921;SDS011;16625;53.624;10.106;2023-07-02T02:51:37;9.73;;;5.43;;
4921;SDS011;16625;53.624;10.106;2023-07-02T02:54:05;16.70;;;6.33;;
4921;SDS011;16625;53.624;10.106;2023-07-02T02:56:32;7.90;;;5.33;;
4921;SDS011;16625;53.624;10.106;2023-07-02T02:58:59;14.60;;;5.90;;
4921;SDS011;16625;53.624;10.106;2023-07-02T03:01:26;10.10;;;5.10;;
4921;SDS011;16625;53.624;10.106;2023-07-02T03:03:57;12.10;;;5.47;;
4921;SDS011;16625;53.624;10.106;2023-07-02T03:06:24;9.30;;;6.50;;
4921;SDS011;16625;53.624;10.106;2023-07-02T03:08:51;14.73;;;5.80;;
4921;SDS011;16625;53.624;10.106;2023-07-02T03:11:18;16.13;;;5.67;;
4921;SDS011;16625;53.624;10.106;2023-07-02T03:13:45;17.07;;;5.93;;
4921;SDS011;16625;53.624;10.106;2023-07-02T03:16:12;12.53;;;5.20;;
4921;SDS011;16625;53.624;10.106;2023-07-02T03:18:39;9.73;;;5.47;;
4921;SDS011;16625;53.624;10.106;2023-07-02T03:21:07;7.20;;;5.60;;
4921;SDS011;16625;53.624;10.106;2023-07-02T03:23:35;11.00;;;5.97;;
4921;SDS011;16625;53.624;10.106;2023-07-02T03:26:02;10.73;;;5.60;;
4921;SDS011;16625;53.624;10.106;2023-07-02T03:28:28;9.40;;;5.70;;
4921;SDS011;16625;53.624;10.106;2023-07-02T03:30:56;17.30;;;5.80;;
4921;SDS011;16625;53.624;10.106;2023-07-02T03:33:22;10.23;;;5.90;;
4921;SDS011;16625;53.624;10.106;2023-07-02T03:35:49;13.63;;;6.73;;
4921;SDS011;16625;53.624;10.106;2023-07-02T03:38:18;19.10;;;5.67;;
4921;SDS011;16625;53.624;10.106;2023-07-02T03:40:45;12.17;;;5.73;;
4921;SDS011;16625;53.624;10.106;2023-07-02T03:43:11;10.13;;;5.93;;
4921;SDS011;16625;53.624;10.106;2023-07-02T03:45:38;10.07;;;5.90;;
4921;SDS011;16625;53.624;10.106;2023-07-02T03:48:05;10.33;;;6.43;;
4921;SDS011;16625;53.624;10.106;2023-07-02T03:50:32;14.43;;;6.60;;
4921;SDS011;16625;53.624;10.106;2023-07-02T03:52:59;10.43;;;4.90;;
4921;SDS011;16625;53.624;10.106;2023-07-02T03:55:27;14.60;;;6.20;;
4921;SDS011;16625;53.624;10.106;2023-07-02T03:57:54;11.77;;;6.10;;
4921;SDS011;16625;53.624;10.106;2023-07-02T04:00:21;11.50;;;5.67;;
4921;SDS011;16625;53.624;10.106;2023-07-02T04:02:48;17.40;;;6.90;;
4921;SDS011;16625;53.624;10.106;2023-07-02T04:05:15;21.23;;;6.40;;
4921;SDS011;16625;53.624;10.106;2023-07-02T04:07:42;18.20;;;5.67;;
4921;SDS011;16625;53.624;10.106;2023-07-02T04:10:09;13.30;;;5.40;;
4921;SDS011;16625;53.624;10.106;2023-07-02T04:12:37;9.77;;;4.83;;
4921;SDS011;16625;53.624;10.106;2023-07-02T04:15:04;9.27;;;5.60;;
4921;SDS011;16625;53.624;10.106;2023-07-02T04:17:33;17.50;;;7.60;;
4921;SDS011;16625;53.624;10.106;2023-07-02T04:20:00;16.13;;;5.73;;
4921;SDS011;16625;53.624;10.106;2023-07-02T04:22:28;14.23;;;5.80;;
4921;SDS011;16625;53.624;10.106;2023-07-02T04:24:55;12.03;;;5.63;;
4921;SDS011;16625;53.624;10.106;2023-07-02T04:27:22;13.00;;;6.50;;
4921;SDS011;16625;53.624;10.106;2023-07-02T04:29:50;10.33;;;6.07;;
4921;SDS011;16625;53.624;10.106;2023-07-02T04:32:19;13.90;;;5.47;;
4921;SDS011;16625;53.624;10.106;2023-07-02T04:34:45;16.07;;;6.00;;
4921;SDS011;16625;53.624;10.106;2023-07-02T04:37:12;17.20;;;5.77;;
4921;SDS011;16625;53.624;10.106;2023-07-02T04:39:40;16.77;;;6.27;;
4921;SDS011;16625;53.624;10.106;2023-07-02T04:42:07;15.80;;;6.07;;
4921;SDS011;16625;53.624;10.106;2023-07-02T04:44:35;9.47;;;5.50;;
4921;SDS011;16625;53.624;10.106;2023-07-02T04:47:03;11.73;;;6.00;;
4921;SDS011;16625;53.624;10.106;2023-07-02T04:49:30;15.73;;;7.00;;
4921;SDS011;16625;53.624;10.106;2023-07-02T04:51:56;24.60;;;8.00;;
4921;SDS011;16625;53.624;10.106;2023-07-02T04:54:23;14.43;;;7.23;;
4921;SDS011;16625;53.624;10.106;2023-07-02T04:56:50;16.00;;;5.70;;
4921;SDS011;16625;53.624;10.106;2023-07-02T04:59:19;22.43;;;6.40;;
4921;SDS011;16625;53.624;10.106;2023-07-02T05:01:47;17.80;;;6.47;;
4921;SDS011;16625;53.624;10.106;2023-07-02T05:04:15;20.87;;;6.03;;
4921;SDS011;16625;53.624;10.106;2023-07-02T05:06:42;26.87;;;7.50;;
4921;SDS011;16625;53.624;10.106;2023-07-02T05:09:09;12.83;;;6.43;;
4921;SDS011;16625;53.624;10.106;2023-07-02T05:11:35;12.37;;;6.63;;
4921;SDS011;16625;53.624;10.106;2023-07-02T05:14:02;12.30;;;5.97;;
4921;SDS011;16625;53.624;10.106;2023-07-02T05:16:29;24.07;;;7.00;;
4921;SDS011;16625;53.624;10.106;2023-07-02T05:18:56;16.43;;;6.60;;
4921;SDS011;16625;53.624;10.106;2023-07-02T05:21:24;22.73;;;5.20;;
4921;SDS011;16625;53.624;10.106;2023-07-02T05:23:51;17.37;;;6.50;;
4921;SDS011;16625;53.624;10.106;2023-07-02T05:26:18;18.23;;;6.27;;
4921;SDS011;16625;53.624;10.106;2023-07-02T05:28:44;15.53;;;7.00;;
4921;SDS011;16625;53.624;10.106;2023-07-02T05:31:11;19.43;;;6.67;;
4921;SDS011;16625;53.624;10.106;2023-07-02T05:33:38;21.50;;;7.10;;
4921;SDS011;16625;53.624;10.106;2023-07-02T05:36:05;18.20;;;6.40;;
4921;SDS011;16625;53.624;10.106;2023-07-02T05:38:33;20.40;;;7.40;;
4921;SDS011;16625;53.624;10.106;2023-07-02T05:41:01;11.63;;;5.50;;
4921;SDS011;16625;53.624;10.106;2023-07-02T05:43:28;14.17;;;6.50;;
4921;SDS011;16625;53.624;10.106;2023-07-02T05:45:57;14.27;;;5.90;;
4921;SDS011;16625;53.624;10.106;2023-07-02T05:48:25;26.20;;;8.43;;
4921;SDS011;16625;53.624;10.106;2023-07-02T05:50:52;15.73;;;7.57;;
4921;SDS011;16625;53.624;10.106;2023-07-02T05:53:19;15.60;;;6.73;;
4921;SDS011;16625;53.624;10.106;2023-07-02T05:55:47;19.10;;;7.87;;
4921;SDS011;16625;53.624;10.106;2023-07-02T05:58:14;20.50;;;6.77;;
4921;SDS011;16625;53.624;10.106;2023-07-02T06:00:41;18.80;;;8.20;;
4921;SDS011;16625;53.624;10.106;2023-07-02T06:03:13;26.20;;;7.00;;
4921;SDS011;16625;53.624;10.106;2023-07-02T06:05:44;13.90;;;5.87;;
4921;SDS011;16625;53.624;10.106;2023-07-02T06:08:12;17.03;;;8.50;;
4921;SDS011;16625;53.624;10.106;2023-07-02T06:10:39;21.93;;;7.70;;
4921;SDS011;16625;53.624;10.106;2023-07-02T06:13:07;12.63;;;7.23;;
4921;SDS011;16625;53.624;10.106;2023-07-02T06:15:34;19.60;;;7.03;;
4921;SDS011;16625;53.624;10.106;2023-07-02T06:18:01;17.30;;;6.63;;
4921;SDS011;16625;53.624;10.106;2023-07-02T06:20:28;24.57;;;7.80;;
4921;SDS011;16625;53.624;10.106;2023-07-02T06:22:54;21.73;;;7.10;;
4921;SDS011;16625;53.624;10.106;2023-07-02T06:25:21;21.90;;;8.20;;
4921;SDS011;16625;53.624;10.106;2023-07-02T06:27:48;22.83;;;6.60;;
4921;SDS011;16625;53.624;10.106;2023-07-02T06:30:16;19.43;;;7.23;;
4921;SDS011;16625;53.624;10.106;2023-07-02T06:32:43;19.40;;;7.07;;
4921;SDS011;16625;53.624;10.106;2023-07-02T06:35:10;22.80;;;7.63;;
4921;SDS011;16625;53.624;10.106;2023-07-02T06:37:37;22.87;;;8.37;;
4921;SDS011;16625;53.624;10.106;2023-07-02T06:40:04;24.63;;;8.50;;
4921;SDS011;16625;53.624;10.106;2023-07-02T06:42:32;22.60;;;7.80;;
4921;SDS011;16625;53.624;10.106;2023-07-02T06:45:01;20.40;;;7.60;;
4921;SDS011;16625;53.624;10.106;2023-07-02T06:47:29;20.47;;;6.90;;
4921;SDS011;16625;53.624;10.106;2023-07-02T06:49:56;19.30;;;7.47;;
4921;SDS011;16625;53.624;10.106;2023-07-02T06:52:23;33.30;;;9.37;;
4921;SDS011;16625;53.624;10.106;2023-07-02T06:54:50;24.53;;;6.30;;
4921;SDS011;16625;53.624;10.106;2023-07-02T06:57:17;15.80;;;7.30;;
4921;SDS011;16625;53.624;10.106;2023-07-02T06:59:44;24.73;;;7.30;;
4921;SDS011;16625;53.624;10.106;2023-07-02T07:02:10;25.43;;;9.63;;
4921;SDS011;16625;53.624;10.106;2023-07-02T07:04:39;20.87;;;7.40;;
4921;SDS011;16625;53.624;10.106;2023-07-02T07:07:06;23.13;;;8.30;;
4921;SDS011;16625;53.624;10.106;2023-07-02T07:09:33;27.40;;;7.97;;
4921;SDS011;16625;53.624;10.106;2023-07-02T07:12:00;24.00;;;7.67;;
4921;SDS011;16625;53.624;10.106;2023-07-02T07:14:27;19.10;;;7.83;;
4921;SDS011;16625;53.624;10.106;2023-07-02T07:16:54;17.00;;;7.80;;
4921;SDS011;16625;53.624;10.106;2023-07-02T07:19:21;20.40;;;5.90;;
4921;SDS011;16625;53.624;10.106;2023-07-02T07:21:49;13.97;;;7.57;;
4921;SDS011;16625;53.624;10.106;2023-07-02T07:24:16;13.70;;;6.13;;
4921;SDS011;16625;53.624;10.106;2023-07-02T07:26:43;23.63;;;7.40;;
4921;SDS011;16625;53.624;10.106;2023-07-02T07:29:11;33.30;;;8.63;;
4921;SDS011;16625;53.624;10.106;2023-07-02T07:31:38;20.83;;;7.50;;
4921;SDS011;16625;53.624;10.106;2023-07-02T07:34:06;28.17;;;9.57;;
4921;SDS011;16625;53.624;10.106;2023-07-02T07:36:32;28.53;;;7.60;;
4921;SDS011;16625;53.624;10.106;2023-07-02T07:39:01;21.30;;;7.50;;
4921;SDS011;16625;53.624;10.106;2023-07-02T07:41:28;26.17;;;7.73;;
4921;SDS011;16625;53.624;10.106;2023-07-02T07:43:55;19.00;;;6.93;;
4921;SDS011;16625;53.624;10.106;2023-07-02T07:46:23;17.50;;;7.37;;
4921;SDS011;16625;53.624;10.106;2023-07-02T07:48:50;22.53;;;6.60;;
4921;SDS011;16625;53.624;10.106;2023-07-02T07:51:16;14.43;;;6.90;;
4921;SDS011;16625;53.624;10.106;2023-07-02T07:53:43;16.40;;;7.60;;
4921;SDS011;16625;53.624;10.106;2023-07-02T07:56:12;20.33;;;8.07;;
4921;SDS011;16625;53.624;10.106;2023-07-02T07:58:39;17.57;;;7.13;;
4921;SDS011;16625;53.624;10.106;2023-07-02T08:01:06;23.80;;;5.50;;
4921;SDS011;16625;53.624;10.106;2023-07-02T08:03:33;14.30;;;6.57;;
4921;SDS011;16625;53.624;10.106;2023-07-02T08:05:59;16.70;;;7.00;;
4921;SDS011;16625;53.624;10.106;2023-07-02T08:08:26;17.57;;;7.63;;
4921;SDS011;16625;53.624;10.106;2023-07-02T08:10:53;20.77;;;6.53;;
4921;SDS011;16625;53.624;10.106;2023-07-02T08:13:21;13.03;;;5.70;;
4921;SDS011;16625;53.624;10.106;2023-07-02T08:15:48;25.17;;;7.00;;
4921;SDS011;16625;53.624;10.106;2023-07-02T08:18:15;10.90;;;5.10;;
4921;SDS011;16625;53.624;10.106;2023-07-02T08:20:42;17.37;;;7.33;;
4921;SDS011;16625;53.624;10.106;2023-07-02T08:23:09;14.20;;;6.33;;
4921;SDS011;16625;53.624;10.106;2023-07-02T08:25:37;14.47;;;6.23;;
4921;SDS011;16625;53.624;10.106;2023-07-02T08:28:03;19.10;;;6.77;;
4921;SDS011;16625;53.624;10.106;2023-07-02T08:30:32;20.53;;;6.50;;
4921;SDS011;16625;53.624;10.106;2023-07-02T08:32:58;18.30;;;6.60;;
4921;SDS011;16625;53.624;10.106;2023-07-02T08:35:25;34.83;;;6.83;;
4921;SDS011;16625;53.624;10.106;2023-07-02T08:37:52;14.43;;;6.40;;
4921;SDS011;16625;53.624;10.106;2023-07-02T08:40:19;16.70;;;6.23;;
4921;SDS011;16625;53.624;10.106;2023-07-02T08:42:46;23.13;;;6.17;;
4921;SDS011;16625;53.624;10.106;2023-07-02T08:45:13;10.20;;;5.07;;
4921;SDS011;16625;53.624;10.106;2023-07-02T08:47:44;19.30;;;6.10;;
4921;SDS011;16625;53.624;10.106;2023-07-02T08:50:11;18.40;;;5.57;;
4921;SDS011;16625;53.624;10.106;2023-07-02T08:52:38;25.83;;;5.60;;
4921;SDS011;16625;53.624;10.106;2023-07-02T08:55:05;13.13;;;5.90;;
4921;SDS011;16625;53.624;10.106;2023-07-02T08:57:34;13.87;;;5.83;;
4921;SDS011;16625;53.624;10.106;2023-07-02T09:00:03;15.83;;;6.80;;
4921;SDS011;16625;53.624;10.106;2023-07-02T09:02:33;15.70;;;4.20;;
4921;SDS011;16625;53.624;10.106;2023-07-02T09:05:02;17.00;;;6.13;;
4921;SDS011;16625;53.624;10.106;2023-07-02T09:07:29;14.87;;;5.27;;
4921;SDS011;16625;53.624;10.106;2023-07-02T09:09:57;22.97;;;5.90;;
4921;SDS011;16625;53.624;10.106;2023-07-02T09:12:27;13.57;;;6.33;;
4921;SDS011;16625;53.624;10.106;2023-07-02T09:14:56;15.70;;;5.10;;
4921;SDS011;16625;53.624;10.106;2023-07-02T09:17:27;14.50;;;4.97;;
4921;SDS011;16625;53.624;10.106;2023-07-02T09:19:56;15.30;;;5.73;;
4921;SDS011;16625;53.624;10.106;2023-07-02T09:22:27;9.93;;;4.50;;
4921;SDS011;16625;53.624;10.106;2023-07-02T09:24:54;14.33;;;5.80;;
4921;SDS011;16625;53.624;10.106;2023-07-02T09:27:32;17.30;;;5.70;;
4921;SDS011;16625;53.624;10.106;2023-07-02T09:30:05;18.77;;;5.60;;
4921;SDS011;16625;53.624;10.106;2023-07-02T09:32:33;12.43;;;4.83;;
4921;SDS011;16625;53.624;10.106;2023-07-02T09:35:00;16.60;;;3.80;;
4921;SDS011;16625;53.624;10.106;2023-07-02T09:37:28;16.67;;;4.37;;
4921;SDS011;16625;53.624;10.106;2023-07-02T09:39:55;20.20;;;5.20;;
4921;SDS011;16625;53.624;10.106;2023-07-02T09:42:23;15.27;;;5.43;;
4921;SDS011;16625;53.624;10.106;2023-07-02T09:44:52;15.03;;;5.63;;
4921;SDS011;16625;53.624;10.106;2023-07-02T09:47:21;13.43;;;5.83;;
4921;SDS011;16625;53.624;10.106;2023-07-02T09:49:49;15.90;;;5.37;;
4921;SDS011;16625;53.624;10.106;2023-07-02T09:52:20;11.60;;;4.97;;
4921;SDS011;16625;53.624;10.106;2023-07-02T09:54:48;13.47;;;5.90;;
4921;SDS011;16625;53.624;10.106;2023-07-02T09:57:16;12.70;;;5.80;;
4921;SDS011;16625;53.624;10.106;2023-07-02T09:59:43;16.53;;;5.50;;
4921;SDS011;16625;53.624;10.106;2023-07-02T10:02:10;10.60;;;4.60;;
4921;SDS011;16625;53.624;10.106;2023-07-02T10:04:40;14.53;;;4.70;;
4921;SDS011;16625;53.624;10.106;2023-07-02T10:07:08;13.70;;;4.97;;
4921;SDS011;16625;53.624;10.106;2023-07-02T10:09:36;9.70;;;4.40;;
4921;SDS011;16625;53.624;10.106;2023-07-02T10:12:18;13.97;;;4.70;;
4921;SDS011;16625;53.624;10.106;2023-07-02T10:14:47;12.23;;;4.57;;
4921;SDS011;16625;53.624;10.106;2023-07-02T10:17:24;14.43;;;4.83;;
4921;SDS011;16625;53.624;10.106;2023-07-02T10:19:53;8.80;;;4.20;;
4921;SDS011;16625;53.624;10.106;2023-07-02T10:22:21;6.20;;;2.97;;
4921;SDS011;16625;53.624;10.106;2023-07-02T10:24:54;8.23;;;4.20;;
4921;SDS011;16625;53.624;10.106;2023-07-02T10:27:36;11.67;;;3.97;;
4921;SDS011;16625;53.624;10.106;2023-07-02T10:30:04;10.00;;;3.90;;
4921;SDS011;16625;53.624;10.106;2023-07-02T10:32:32;9.00;;;4.03;;
4921;SDS011;16625;53.624;10.106;2023-07-02T10:35:00;10.13;;;4.20;;
4921;SDS011;16625;53.624;10.106;2023-07-02T10:37:34;19.47;;;5.10;;
4921;SDS011;16625;53.624;10.106;2023-07-02T10:40:03;12.20;;;4.90;;
4921;SDS011;16625;53.624;10.106;2023-07-02T10:42:31;11.60;;;4.60;;
4921;SDS011;16625;53.624;10.106;2023-07-02T10:45:00;9.77;;;4.23;;
4921;SDS011;16625;53.624;10.106;2023-07-02T10:47:28;8.93;;;4.00;;
4921;SDS011;16625;53.624;10.106;2023-07-02T10:49:55;17.00;;;4.70;;
4921;SDS011;16625;53.624;10.106;2023-07-02T10:52:22;20.53;;;5.03;;
4921;SDS011;16625;53.624;10.106;2023-07-02T10:54:49;18.13;;;5.13;;
4921;SDS011;16625;53.624;10.106;2023-07-02T10:57:17;9.03;;;4.50;;
4921;SDS011;16625;53.624;10.106;2023-07-02T10:59:46;13.80;;;4.70;;
4921;SDS011;16625;53.624;10.106;2023-07-02T11:02:14;11.07;;;4.63;;
4921;SDS011;16625;53.624;10.106;2023-07-02T11:04:41;13.90;;;4.67;;
4921;SDS011;16625;53.624;10.106;2023-07-02T11:07:09;13.10;;;3.80;;
4921;SDS011;16625;53.624;10.106;2023-07-02T11:09:36;9.40;;;4.00;;
4921;SDS011;16625;53.624;10.106;2023-07-02T11:12:03;8.63;;;4.17;;
4921;SDS011;16625;53.624;10.106;2023-07-02T11:14:31;5.30;;;2.93;;
4921;SDS011;16625;53.624;10.106;2023-07-02T11:16:59;12.63;;;4.30;;
4921;SDS011;16625;53.624;10.106;2023-07-02T11:19:31;14.50;;;4.00;;
4921;SDS011;16625;53.624;10.106;2023-07-02T11:21:58;11.03;;;3.20;;
4921;SDS011;16625;53.624;10.106;2023-07-02T11:24:29;10.67;;;4.10;;
4921;SDS011;16625;53.624;10.106;2023-07-02T11:26:57;11.33;;;3.67;;
4921;SDS011;16625;53.624;10.106;2023-07-02T11:29:24;14.23;;;4.10;;
4921;SDS011;16625;53.624;10.106;2023-07-02T11:31:51;21.40;;;5.07;;
4921;SDS011;16625;53.624;10.106;2023-07-02T11:34:19;17.53;;;3.53;;
4921;SDS011;16625;53.624;10.106;2023-07-02T11:36:50;7.00;;;3.67;;
4921;SDS011;16625;53.624;10.106;2023-07-02T11:39:19;14.87;;;3.67;;
4921;SDS011;16625;53.624;10.106;2023-07-02T11:41:47;14.67;;;4.60;;
4921;SDS011;16625;53.624;10.106;2023-07-02T11:44:15;8.70;;;4.37;;
4921;SDS011;16625;53.624;10.106;2023-07-02T11:46:42;11.03;;;3.73;;
4921;SDS011;16625;53.624;10.106;2023-07-02T11:49:09;10.90;;;3.00;;
4921;SDS011;16625;53.624;10.106;2023-07-02T11:51:36;12.60;;;3.90;;
4921;SDS011;16625;53.624;10.106;2023-07-02T11:54:05;9.50;;;3.77;;
4921;SDS011;16625;53.624;10.106;2023-07-02T11:56:32;8.47;;;3.70;;
4921;SDS011;16625;53.624;10.106;2023-07-02T11:58:59;10.40;;;3.07;;
4921;SDS011;16625;53.624;10.106;2023-07-02T12:01:26;8.60;;;3.60;;
4921;SDS011;16625;53.624;10.106;2023-07-02T12:03:53;6.17;;;3.80;;
4921;SDS011;16625;53.624;10.106;2023-07-02T12:06:20;8.70;;;2.80;;
4921;SDS011;16625;53.624;10.106;2023-07-02T12:08:47;10.60;;;4.23;;
4921;SDS011;16625;53.624;10.106;2023-07-02T12:11:17;7.83;;;3.33;;
4921;SDS011;16625;53.624;10.106;2023-07-02T12:13:44;14.53;;;4.60;;
4921;SDS011;16625;53.624;10.106;2023-07-02T12:16:12;12.13;;;3.60;;
4921;SDS011;16625;53.624;10.106;2023-07-02T12:18:38;11.53;;;4.17;;
4921;SDS011;16625;53.624;10.106;2023-07-02T12:21:05;13.33;;;4.13;;
4921;SDS011;16625;53.624;10.106;2023-07-02T12:23:32;12.07;;;3.97;;
4921;SDS011;16625;53.624;10.106;2023-07-02T12:25:59;10.77;;;4.33;;
4921;SDS011;16625;53.624;10.106;2023-07-02T12:28:27;12.80;;;3.90;;
4921;SDS011;16625;53.624;10.106;2023-07-02T12:30:54;8.27;;;2.87;;
4921;SDS011;16625;53.624;10.106;2023-07-02T12:33:21;13.00;;;4.60;;
4921;SDS011;16625;53.624;10.106;2023-07-02T12:35:48;8.70;;;3.93;;
4921;SDS011;16625;53.624;10.106;2023-07-02T12:38:15;9.00;;;4.50;;
4921;SDS011;16625;53.624;10.106;2023-07-02T12:40:42;21.23;;;4.43;;
4921;SDS011;16625;53.624;10.106;2023-07-02T12:43:09;7.30;;;3.00;;
4921;SDS011;16625;53.624;10.106;2023-07-02T12:45:37;6.97;;;3.53;;
4921;SDS011;16625;53.624;10.106;2023-07-02T12:48:04;8.20;;;4.00;;
4921;SDS011;16625;53.624;10.106;2023-07-02T12:50:31;12.23;;;4.07;;
4921;SDS011;16625;53.624;10.106;2023-07-02T12:52:58;12.43;;;3.97;;
4921;SDS011;16625;53.624;10.106;2023-07-02T12:55:24;11.20;;;3.87;;
4921;SDS011;16625;53.624;10.106;2023-07-02T12:57:51;7.20;;;3.13;;
4921;SDS011;16625;53.624;10.106;2023-07-02T13:00:18;7.90;;;3.33;;
4921;SDS011;16625;53.624;10.106;2023-07-02T13:02:47;5.67;;;3.13;;
4921;SDS011;16625;53.624;10.106;2023-07-02T13:05:14;10.20;;;3.67;;
4921;SDS011;16625;53.624;10.106;2023-07-02T13:07:41;9.37;;;3.20;;
4921;SDS011;16625;53.624;10.106;2023-07-02T13:10:08;8.83;;;3.30;;
4921;SDS011;16625;53.624;10.106;2023-07-02T13:12:35;5.77;;;2.33;;
4921;SDS011;16625;53.624;10.106;2023-07-02T13:15:02;13.73;;;3.10;;
4921;SDS011;16625;53.624;10.106;2023-07-02T13:17:29;8.57;;;2.60;;
4921;SDS011;16625;53.624;10.106;2023-07-02T13:19:57;7.13;;;2.90;;
4921;SDS011;16625;53.624;10.106;2023-07-02T13:22:24;5.70;;;2.67;;
4921;SDS011;16625;53.624;10.106;2023-07-02T13:24:51;11.83;;;3.00;;
4921;SDS011;16625;53.624;10.106;2023-07-02T13:27:18;20.07;;;2.60;;
4921;SDS011;16625;53.624;10.106;2023-07-02T13:29:45;7.67;;;3.13;;
4921;SDS011;16625;53.624;10.106;2023-07-02T13:32:12;7.43;;;3.03;;
4921;SDS011;16625;53.624;10.106;2023-07-02T13:34:38;19.07;;;3.20;;
4921;SDS011;16625;53.624;10.106;2023-07-02T13:37:08;5.20;;;3.30;;
4921;SDS011;16625;53.624;10.106;2023-07-02T13:39:35;9.70;;;2.50;;
4921;SDS011;16625;53.624;10.106;2023-07-02T13:42:02;7.97;;;2.73;;
4921;SDS011;16625;53.624;10.106;2023-07-02T13:44:29;13.53;;;2.73;;
4921;SDS011;16625;53.624;10.106;2023-07-02T13:46:56;6.33;;;2.57;;
4921;SDS011;16625;53.624;10.106;2023-07-02T13:49:22;5.83;;;2.80;;
4921;SDS011;16625;53.624;10.106;2023-07-02T13:51:49;7.33;;;2.37;;
4921;SDS011;16625;53.624;10.106;2023-07-02T13:54:17;6.20;;;2.70;;
4921;SDS011;16625;53.624;10.106;2023-07-02T13:56:45;7.33;;;2.50;;
4921;SDS011;16625;53.624;10.106;2023-07-02T13:59:13;7.87;;;2.90;;
4921;SDS011;16625;53.624;10.106;2023-07-02T14:01:41;7.60;;;2.70;;
4921;SDS011;16625;53.624;10.106;2023-07-02T14:04:09;5.33;;;3.17;;
4921;SDS011;16625;53.624;10.106;2023-07-02T14:06:36;8.03;;;2.43;;
4921;SDS011;16625;53.624;10.106;2023-07-02T14:09:03;6.43;;;2.33;;
4921;SDS011;16625;53.624;10.106;2023-07-02T14:11:31;8.37;;;3.00;;
4921;SDS011;16625;53.624;10.106;2023-07-02T14:13:58;6.87;;;2.50;;
4921;SDS011;16625;53.624;10.106;2023-07-02T14:16:26;5.73;;;2.97;;
4921;SDS011;16625;53.624;10.106;2023-07-02T14:18:53;5.80;;;2.90;;
4921;SDS011;16625;53.624;10.106;2023-07-02T14:21:20;11.90;;;2.93;;
4921;SDS011;16625;53.624;10.106;2023-07-02T14:23:47;11.20;;;3.30;;
4921;SDS011;16625;53.624;10.106;2023-07-02T14:26:14;9.30;;;2.83;;
4921;SDS011;16625;53.624;10.106;2023-07-02T14:28:41;7.70;;;3.00;;
4921;SDS011;16625;53.624;10.106;2023-07-02T14:31:08;5.87;;;2.50;;
4921;SDS011;16625;53.624;10.106;2023-07-02T14:33:37;4.87;;;2.63;;
4921;SDS011;16625;53.624;10.106;2023-07-02T14:36:04;6.00;;;2.17;;
4921;SDS011;16625;53.624;10.106;2023-07-02T14:38:32;8.37;;;3.07;;
4921;SDS011;16625;53.624;10.106;2023-07-02T14:41:00;11.00;;;3.00;;